createdAt,value
2023-04-01T04:48:44.344Z,28.17
2023-04-01T04:49:56.548Z,19.42
2023-04-01T04:51:02.966Z,17.85
2023-04-01T04:54:06.399Z,18.35
2023-04-01T04:55:29.440Z,18.80
2023-04-01T04:57:10.418Z,18.13
2023-04-01T04:58:32.478Z,18.35
2023-04-01T05:01:43.004Z,17.88
2023-04-01T05:02:50.332Z,18.17
2023-04-01T05:04:01.557Z,17.77
2023-04-01T05:05:19.631Z,17.90
2023-04-01T05:06:39.296Z,21.10
2023-04-01T05:07:46.875Z,19.95
2023-04-01T05:08:50.443Z,19.02
2023-04-01T05:31:52.391Z,16.77
2023-04-01T05:33:19.320Z,17.05
2023-04-01T05:34:32.695Z,17.33
2023-04-01T05:35:42.679Z,17.38
2023-04-01T05:37:43.984Z,16.15
2023-04-01T05:38:59.238Z,16.63
2023-04-01T05:40:15.660Z,15.75
2023-04-01T05:41:53.561Z,16.77
2023-04-01T06:12:26.134Z,15.25
2023-04-01T06:13:56.804Z,15.60
2023-04-01T06:20:09.090Z,15.32
2023-04-01T06:21:28.169Z,15.95
2023-04-01T06:23:16.484Z,15.95
2023-04-01T06:24:23.914Z,15.40
2023-04-01T06:26:15.535Z,15.98
2023-04-01T06:27:27.270Z,17.08
2023-04-01T06:29:04.941Z,16.48
2023-04-01T06:30:42.509Z,15.43
2023-04-01T06:32:08.638Z,15.73
2023-04-01T06:33:39.778Z,15.48
2023-04-01T06:34:56.823Z,15.30
2023-04-01T06:36:13.126Z,16.05
2023-04-01T06:37:34.583Z,15.68
2023-04-01T06:38:48.443Z,15.65
2023-04-01T06:40:27.694Z,16.38
2023-04-01T06:41:45.485Z,30.23
2023-04-01T06:43:24.507Z,16.77
2023-04-01T06:44:52.206Z,15.77
2023-04-01T06:46:32.383Z,15.02
2023-04-01T06:48:05.059Z,15.95
2023-04-01T06:50:06.811Z,16.38
2023-04-01T06:52:03.922Z,15.50
2023-04-01T06:53:46.699Z,15.77
2023-04-01T06:55:22.962Z,16.15
2023-04-01T06:56:57.712Z,17.95
2023-04-01T06:58:09.711Z,17.65
2023-04-01T06:59:47.927Z,15.88
2023-04-01T07:01:02.483Z,16.13
2023-04-01T07:02:18.629Z,17.85
2023-04-01T07:03:35.137Z,17.75
2023-04-01T07:06:23.145Z,17.23
2023-04-01T07:07:45.439Z,17.55
2023-04-01T07:09:04.187Z,16.75
2023-04-01T07:11:08.676Z,18.60
2023-04-01T07:12:35.243Z,19.50
2023-04-01T07:14:16.196Z,20.10
2023-04-01T07:15:35.386Z,16.77
2023-04-01T07:17:17.033Z,17.10
2023-04-01T07:18:39.488Z,17.77
2023-04-01T07:20:04.482Z,19.42
2023-04-01T07:21:16.927Z,17.27
2023-04-01T07:22:54.012Z,17.80
2023-04-01T07:24:44.428Z,17.75
2023-04-01T07:25:55.618Z,17.27
2023-04-01T07:27:22.448Z,18.40
2023-04-01T07:28:37.811Z,18.65
2023-04-01T07:30:14.220Z,17.58
2023-04-01T07:31:40.073Z,19.00
2023-04-01T07:33:09.749Z,17.70
2023-04-01T07:34:28.427Z,18.20
2023-04-01T07:36:04.638Z,19.15
2023-04-01T07:37:14.036Z,18.02
2023-04-01T07:38:45.336Z,17.50
2023-04-01T07:40:15.358Z,18.50
2023-04-01T07:41:26.911Z,18.40
2023-04-01T07:43:05.241Z,18.35
2023-04-01T07:44:21.629Z,21.13
2023-04-01T07:45:39.762Z,17.27
2023-04-01T07:47:02.256Z,17.38
2023-04-01T07:48:42.270Z,17.20
2023-04-01T07:50:47.835Z,17.52
2023-04-01T07:52:43.238Z,17.17
2023-04-01T07:54:27.612Z,17.50
2023-04-01T07:56:45.254Z,17.95
2023-04-01T08:00:12.644Z,18.00
2023-04-01T08:01:55.152Z,17.38
2023-04-01T08:03:14.615Z,17.25
2023-04-01T08:04:46.649Z,16.70
2023-04-01T08:06:27.438Z,18.45
2023-04-01T08:07:35.817Z,18.05
2023-04-01T08:09:23.224Z,17.48
2023-04-01T08:13:15.653Z,17.77
2023-04-01T08:15:17.395Z,17.63
2023-04-01T08:17:09.786Z,18.10
2023-04-01T08:18:48.408Z,18.10
2023-04-01T08:20:13.793Z,18.33
2023-04-01T08:21:36.346Z,18.35
2023-04-01T08:22:48.625Z,17.33
2023-04-01T08:24:15.395Z,18.27
2023-04-01T08:25:28.599Z,18.55
2023-04-01T08:26:47.302Z,18.55
2023-04-01T08:28:30.190Z,17.67
2023-04-01T08:29:47.858Z,18.80
2023-04-01T08:31:18.043Z,18.77
2023-04-01T08:32:45.746Z,19.00
2023-04-01T08:34:06.610Z,18.58
2023-04-01T08:35:16.998Z,18.40
2023-04-01T08:36:33.205Z,17.27
2023-04-01T08:37:53.508Z,18.17
2023-04-01T08:39:13.980Z,18.02
2023-04-01T08:40:54.440Z,19.02
2023-04-01T08:42:27.871Z,18.30
2023-04-01T08:44:20.109Z,18.42
2023-04-01T08:46:25.010Z,17.17
2023-04-01T08:47:50.338Z,18.10
2023-04-01T08:49:54.869Z,18.48
2023-04-01T08:53:58.784Z,18.45
2023-04-01T08:55:54.245Z,17.85
2023-04-01T08:57:12.861Z,17.58
2023-04-01T09:02:25.870Z,18.17
2023-04-01T09:03:50.293Z,18.48
2023-04-01T09:05:36.012Z,18.33
2023-04-01T09:07:12.883Z,17.92
2023-04-01T09:08:51.131Z,18.25
2023-04-01T09:10:06.518Z,17.45
2023-04-01T09:11:17.063Z,19.52
2023-04-01T09:13:31.389Z,17.83
2023-04-01T09:18:32.070Z,18.48
2023-04-01T09:20:19.582Z,17.33
2023-04-01T09:21:49.704Z,18.15
2023-04-01T09:23:07.826Z,19.08
2023-04-01T09:24:45.688Z,18.25
2023-04-01T09:26:21.943Z,18.23
2023-04-01T09:27:48.968Z,17.60
2023-04-01T09:29:34.424Z,17.90
2023-04-01T09:31:05.759Z,19.17
2023-04-01T09:32:42.253Z,17.75
2023-04-01T09:34:18.952Z,18.45
2023-04-01T09:35:49.349Z,17.73
2023-04-01T09:37:23.037Z,17.67
2023-04-01T09:38:57.626Z,18.40
2023-04-01T09:40:26.015Z,17.40
2023-04-01T09:41:55.004Z,16.90
2023-04-01T09:43:19.705Z,15.93
2023-04-01T09:44:33.270Z,15.85
2023-04-01T09:46:06.227Z,16.35
2023-04-01T09:48:10.433Z,14.45
2023-04-01T09:49:52.827Z,16.35
2023-04-01T09:51:25.210Z,14.80
2023-04-01T09:52:59.421Z,14.45
2023-04-01T09:54:22.647Z,15.70
2023-04-01T09:55:52.931Z,14.38
2023-04-01T09:57:49.801Z,27.08
2023-04-01T09:59:53.657Z,14.18
2023-04-01T10:01:57.441Z,14.88
2023-04-01T10:03:43.690Z,15.18
2023-04-01T10:05:18.446Z,15.18
2023-04-01T10:07:20.363Z,13.73
2023-04-01T10:09:09.699Z,13.73
2023-04-01T10:10:34.641Z,13.98
2023-04-01T10:12:26.892Z,13.32
2023-04-01T10:14:22.984Z,13.15
2023-04-01T10:15:42.892Z,12.45
2023-04-01T10:17:15.289Z,12.85
2023-04-01T10:18:27.778Z,12.65
2023-04-01T10:20:02.946Z,13.23
2023-04-01T10:22:50.517Z,12.43
2023-04-01T10:24:39.217Z,13.30
2023-04-01T10:26:36.217Z,12.75
2023-04-01T10:28:11.050Z,11.20
2023-04-01T10:30:08.051Z,11.70
2023-04-01T10:32:20.843Z,10.93
2023-04-01T10:33:48.131Z,11.15
2023-04-01T10:35:11.352Z,11.90
2023-04-01T10:36:18.546Z,8.93
2023-04-01T10:39:31.712Z,9.50
2023-04-01T10:41:23.592Z,10.30
2023-04-01T10:43:22.216Z,10.82
2023-04-01T10:45:14.321Z,10.30
2023-04-01T10:46:57.502Z,9.52
2023-04-01T10:48:21.477Z,9.48
2023-04-01T10:50:03.288Z,9.90
2023-04-01T10:51:28.340Z,9.80
2023-04-01T10:52:47.767Z,9.90
2023-04-01T10:54:17.108Z,9.48
2023-04-01T10:56:35.056Z,11.48
2023-04-01T10:58:38.067Z,10.18
2023-04-01T11:00:29.595Z,11.05
2023-04-01T11:02:21.851Z,11.25
2023-04-01T11:04:29.169Z,10.55
2023-04-01T11:06:17.070Z,11.10
2023-04-01T11:08:05.283Z,10.55
2023-04-01T11:09:26.633Z,16.50
2023-04-01T11:11:20.071Z,8.85
2023-04-01T11:12:48.064Z,10.68
2023-04-01T11:14:19.168Z,10.82
2023-04-01T11:16:00.559Z,9.48
2023-04-01T11:17:38.674Z,9.43
2023-04-01T11:19:12.111Z,10.32
2023-04-01T11:20:54.576Z,10.35
2023-04-01T11:22:11.737Z,10.50
2023-04-01T11:23:28.670Z,8.45
2023-04-01T11:24:54.489Z,8.57
2023-04-01T11:26:54.521Z,8.45
2023-04-01T11:28:10.177Z,8.27
2023-04-01T11:29:49.770Z,13.55
2023-04-01T11:31:27.752Z,8.95
2023-04-01T11:32:51.647Z,9.40
2023-04-01T11:34:18.555Z,8.98
2023-04-01T11:35:26.509Z,9.18
2023-04-01T11:36:55.833Z,9.10
2023-04-01T11:38:24.195Z,9.13
2023-04-01T11:40:10.263Z,8.95
2023-04-01T11:42:10.334Z,9.55
2023-04-01T11:44:00.771Z,11.60
2023-04-01T11:45:29.245Z,9.45
2023-04-01T11:46:57.227Z,8.40
2023-04-01T11:48:26.685Z,8.55
2023-04-01T11:50:13.764Z,9.00
2023-04-01T11:51:38.843Z,9.48
2023-04-01T11:53:00.188Z,8.77
2023-04-01T11:54:18.502Z,8.95
2023-04-01T11:55:27.674Z,9.95
2023-04-01T11:56:52.568Z,8.95
2023-04-01T11:58:00.946Z,10.05
2023-04-01T11:59:07.557Z,8.45
2023-04-01T12:00:34.761Z,8.90
2023-04-01T12:02:11.173Z,9.20
2023-04-01T12:03:49.871Z,8.93
2023-04-01T12:05:01.879Z,9.02
2023-04-01T12:06:27.242Z,9.45
2023-04-01T12:08:00.289Z,8.93
2023-04-01T12:09:19.914Z,9.20
2023-04-01T12:10:35.435Z,9.63
2023-04-01T12:11:51.208Z,10.00
2023-04-01T12:13:08.241Z,9.00
2023-04-01T12:14:27.512Z,9.57
2023-04-01T12:15:51.179Z,10.32
2023-04-01T12:17:20.684Z,9.95
2023-04-01T12:18:33.720Z,9.82
2023-04-01T12:19:51.079Z,10.18
2023-04-01T12:21:30.081Z,9.90
2023-04-01T12:22:53.855Z,10.40
2023-04-01T12:24:33.920Z,9.90
2023-04-01T12:25:36.861Z,9.07
2023-04-01T12:27:01.613Z,9.10
2023-04-01T12:28:20.759Z,8.98
2023-04-01T12:29:38.474Z,8.43
2023-04-01T12:30:50.187Z,8.82
2023-04-01T12:32:30.797Z,9.68
2023-04-01T12:33:40.000Z,8.85
2023-04-01T12:34:44.972Z,8.98
2023-04-01T12:36:05.729Z,9.60
2023-04-01T12:37:20.410Z,15.43
2023-04-01T12:38:36.460Z,10.13
2023-04-01T12:40:11.085Z,9.45
2023-04-01T12:41:28.889Z,9.80
2023-04-01T12:42:35.016Z,10.70
2023-04-01T12:44:30.608Z,11.70
2023-04-01T12:45:49.465Z,10.02
2023-04-01T12:50:03.426Z,8.88
2023-04-01T12:56:30.062Z,8.95
2023-04-01T12:59:23.000Z,8.82
2023-04-01T13:00:48.458Z,9.63
2023-04-01T13:02:33.094Z,9.18
2023-04-01T13:04:20.768Z,9.00
2023-04-01T13:05:51.176Z,8.90
2023-04-01T13:07:03.641Z,8.43
2023-04-01T13:08:32.056Z,8.88
2023-04-01T13:10:05.134Z,9.05
2023-04-01T13:11:21.961Z,8.80
2023-04-01T13:12:55.751Z,8.95
2023-04-01T13:14:31.351Z,9.30
2023-04-01T13:15:54.755Z,9.00
2023-04-01T13:17:15.386Z,9.70
2023-04-01T13:18:27.129Z,10.15
2023-04-01T13:20:06.411Z,9.60
2023-04-01T13:21:47.829Z,9.10
2023-04-01T13:23:25.942Z,8.70
2023-04-01T13:24:42.006Z,8.85
2023-04-01T13:26:15.132Z,8.90
2023-04-01T13:27:33.534Z,8.70
2023-04-01T13:28:46.848Z,8.82
2023-04-01T13:30:10.824Z,8.57
2023-04-01T13:31:55.165Z,8.30
2023-04-01T13:33:14.825Z,8.05
2023-04-01T13:34:38.832Z,8.93
2023-04-01T13:36:17.689Z,10.82
2023-04-01T13:37:36.080Z,8.45
2023-04-01T13:39:09.328Z,8.32
2023-04-01T13:40:30.226Z,8.77
2023-04-01T13:41:57.186Z,8.15
2023-04-01T13:43:15.218Z,9.45
2023-04-01T13:44:33.388Z,8.27
2023-04-01T13:46:03.475Z,8.05
2023-04-01T13:47:43.133Z,8.40
2023-04-01T13:49:26.042Z,8.65
2023-04-01T13:51:08.778Z,9.55
2023-04-01T13:52:32.973Z,9.13
2023-04-01T13:53:57.424Z,9.18
2023-04-01T13:55:25.735Z,9.68
2023-04-01T13:56:47.953Z,8.90
2023-04-01T13:58:28.351Z,9.32
2023-04-01T13:59:53.834Z,9.63
2023-04-01T17:02:33.932Z,13.30
2023-04-01T17:09:58.295Z,13.45
2023-04-01T17:11:40.358Z,13.85
2023-04-01T17:18:45.737Z,14.00
2023-04-01T20:38:30.963Z,17.73
2023-04-01T20:39:53.764Z,18.13
2023-04-01T20:41:28.999Z,17.65
2023-04-01T20:42:48.602Z,18.10
2023-04-01T20:44:12.865Z,17.77
2023-04-01T20:45:44.140Z,18.83
2023-04-01T20:47:14.584Z,18.48
2023-04-01T20:48:59.497Z,18.45
2023-04-01T20:50:35.248Z,17.95
2023-04-01T20:51:52.550Z,17.92
2023-04-01T20:53:09.244Z,18.33
2023-04-01T20:54:46.409Z,17.85
2023-04-01T20:56:12.397Z,18.25
2023-04-01T20:57:33.602Z,18.00
2023-04-01T20:58:44.065Z,17.95
2023-04-01T21:00:53.044Z,18.08
2023-04-01T21:02:21.542Z,17.70
2023-04-01T21:03:56.606Z,16.70
2023-04-01T21:05:46.957Z,17.50
